METAR Data
IDs: Format: Raw Decoded Include TAF

Data at: 0919 UTC 18 Jan 2019

PAJN 180853Z 07004KT 10SM FEW170 M04/M10 A2964 RMK AO2 SLP038 T10391100 400001061 50003
PAJN 180753Z 06005KT 10SM CLR M06/M11 A2965 RMK AO2 SLP038 T10561106
PAJN 180653Z 07006KT 10SM FEW200 M03/M10 A2964 RMK AO2 SLP036 T10331100
PAJN 180553Z 06004KT 10SM FEW200 M03/M10 A2964 RMK AO2 SLP035 4/008 T10331100 11011 21050 53003
PAJN 180453Z 07005KT 10SM SCT200 M03/M10 A2963 RMK AO2 SLP033 T10281100
PAJN 180353Z 07007KT 040V140 10SM SCT200 M02/M10 A2963 RMK AO2 SLP035 T10221100
PAJN 180253Z 06005KT 10SM FEW140 BKN230 M02/M11 A2963 RMK AO2 SLP033 T10171106 57001
PAJN 180153Z 08005KT 10SM FEW020 FEW140 BKN250 M03/M10 A2963 RMK AO2 SLP034 T10281100
PAJN 180053Z 13011KT 10SM FEW020 FEW140 BKN250 M02/M10 A2963 RMK AO2 SLP032 T10171100
PAJN 172353Z 14012KT 10SM FEW160 BKN200 M01/M10 A2963 RMK AO2 SLP034 4/008 T10111100 10000 21028 53001
PAJN 172253Z 13009KT 10SM FEW140 SCT200 M01/M10 A2962 RMK AO2 SLP030 T10111100
PAJN 172153Z 14012KT 10SM FEW200 M01/M09 A2962 RMK AO2 SLP030 T10061089
PAJN 172053Z VRB04KT 10SM FEW200 M01/M09 A2963 RMK AO2 SLP033 T10061089 58004
PAJN 171953Z 08003KT 10SM FEW200 00/M08 A2964 RMK AO2 SLP035 T00001083 $
PAJN 171853Z 05004KT 10SM FEW180 M02/M08 A2964 RMK SLP038 T10171078 $ VIA AUTODIAL
PAJN 171753Z 04004KT 10SM FEW180 M02/M07 A2964 RMK AO2 SLP037 4/008 933015 T10221067 11006 21033 56004 $
PAJN 171653Z 08006KT 10SM FEW180 M03/M08 A2964 RMK AO2 SLP038 T10281078 $
PAJN 171553Z 07005KT 10SM CLR M03/M07 A2964 RMK AO2 SLP038 T10281067 $
PAJN 171453Z 08006KT 10SM CLR M02/M06 A2965 RMK AO2 SLP041 T10221061 56014 $
PAJN 171353Z 07006KT 10SM FEW140 M02/M06 A2966 RMK AO2 SLP044 T10221056 $
PAJN 171253Z 06006KT 10SM FEW001 FEW130 M02/M05 A2968 RMK AO2 SLP049 T10171050 $
PAJN 171153Z COR 06007KT 10SM FEW001 FEW130 M01/M04 A2969 RMK AO2 SLP055 4/008 I1000 I6003 T10061044 11006 21050 58012 $
PAJN 171053Z 00000KT 10SM R08/6000VP6000FT FEW001 FEW130 M03/M06 A2971 RMK AO2 SLP059 I1001 T10331056 $
PAJN 170953Z 00000KT 10SM BCFG FEW001 FEW110 M04/M07 A2972 RMK AO2 SLP063 BCFG E-SE T10441067 $
PAJN 170853Z 00000KT 10SM BCFG FEW001 FEW140 M04/M07 A2973 RMK AO2 SLP067 BCFG NE-SE I1001 I3002 T10441067 400001044 58010 $
PAJN 170753Z 00000KT 10SM BCFG FEW001 FEW140 M04/M07 A2974 RMK AO2 SLP071 BCFG SE T10441067 $
PAJN 170653Z VRB03KT 3SM R08/4500VP6000FT BR SCT000 SCT006 M03/M06 A2975 RMK AO2 SLP075 VIS SE-W 3/4 BR SCT000 I1001 T10331056 $
PAJN 170646Z 00000KT 3SM R08/4000VP6000FT BR SCT000 SCT006 M04/M06 A2975 RMK AO2 VIS SE-W 3/4 BR SCT000 I1001 T10391056 $
PAJN 170623Z 00000KT 1/2SM R08/1400V2200FT FZFG BKN000 M04/M06 A2976 RMK AO2 FZFG BKN000 I1001 T10391056 $
PAJN 170553Z 00000KT 3SM R08/0800V3000FT BR SCT000 SCT004 M03/M06 A2976 RMK AO2 SLP076 VIS SE-SW 1/2 BR SCT000 4/008 I6003 T10331056 11017 21039 57002 $
PAJN 170518Z 00000KT 3SM R08/2400V6000FT BR SCT000 BKN160 M04/M06 A2976 RMK AO2 VIS SE-W 1/2 BR SCT000 T10391061 $
PAJN 170453Z 00000KT 1/2SM R08/1400V2600FT FZFG VV001 M03/M05 A2976 RMK AO2 SLP077 I1001 T10281050 $
PAJN 170450Z 00000KT 1/2SM R08/1200V1800FT FZFG VV001 M03/M05 A2976 RMK AO2 I1000 $
PAJN 170428Z 00000KT 1/4SM R08/1600V3000FT FZFG VV001 M03/M05 A2976 RMK AO2 I1000 T10281050 $
PAJN 170353Z 00000KT 1/8SM R08/1000V1400FT FZFG VV001 M02/M04 A2976 RMK AO2 SLP078 I1000 T10221039 $
PAJN 170330Z 00000KT 1/8SM R08/0700V1000FT FZFG BKN000 M02/M04 A2976 RMK AO2 FZFG BKN000 T10221039 $
PAJN 170312Z 00000KT 1/4SM R08/1200V3500FT FZFG BKN000 M02/M04 A2977 RMK AO2 FZFG BKN000 T10171039 $
PAJN 170305Z 00000KT 1/4SM R08/1200V1600FT FZFG BKN000 M02/M04 A2977 RMK AO2 FZFG BKN000 T10221039 $
PAJN 170253Z 00000KT 1/4SM R08/1800V4000FT FZFG BKN000 M02/M04 A2977 RMK AO2 SLP081 FZFG BKN000 I1001 I3002 T10171039 58006 $
PAJN 170210Z 00000KT 1/4SM R08/1600V6000FT FZFG BKN000 M02/M03 A2978 RMK AO2 FZFG BKN000 T10171028 $
PAJN 170153Z 00000KT 1/8SM R08/0700V1200FT FZFG BKN000 BKN180 M02/M03 A2978 RMK AO2 SFC VIS 1/4 SLP085 FZFG BKN000 I1001 T10171033 $
PAJN 170053Z 00000KT 1/2SM R08/1000V1600FT FZFG BKN000 M02/M03 A2979 RMK AO2 SLP086 FZFG BKN000 I1000 T10171028 $
PAJN 170044Z 00000KT 1/2SM R08/1000V1200FT FZFG BKN001 BKN180 M02/M03 A2979 RMK AO2 I1000 T10171028 $
PAJN 170033Z 00000KT 1SM R08/1000V1400FT BR SCT001 BKN180 M03/M03 A2979 RMK AO2 VIS SE-SW 1/2 W-NW 1/4 I1000 T10281033 $
PAJN 170020Z 00000KT 2SM R08/1200V1600FT BR SCT001 SCT180 M02/M04 A2979 RMK AO2 SFC VIS 5 VIS E-SE 1/2 SW-W 1/4 NW 1/2 T10221039
PAJN 170012Z 00000KT 3SM R08/1400V1800FT BCFG SCT001 SCT180 M02/M03 A2979 RMK AO2 SFC VIS 10 VIS E-SE 1/2 SW-W 1/4 NW 1/2 BCFG ALQDS T10221028
PAJN 162353Z 00000KT 10SM R08/2200VP6000FT BCFG FEW001 SCT180 M03/M03 A2979 RMK AO2 SLP087 BCFG E-S-W 4/008 I6003 T10281033 10000 21033 55005
PAJN 162321Z 00000KT 10SM R08/1800V2600FT BCFG FEW001 SCT190 M01/M02 A2979 RMK AO2 BCFG E-S-W T10111017
PAJN 162314Z 00000KT 10SM R08/1200V2000FT BCFG FEW001 SCT190 M01/M02 A2978 RMK AO2 T10111022
PAJN 162253Z 00000KT 10SM R08/3000VP6000FT BCFG FEW001 SCT190 M01/M02 A2978 RMK AO2 SLP085 BCFG E-S-W T10111017
PAJN 162153Z 00000KT 10SM BCFG FEW001 SCT190 M01/M01 A2980 RMK AO2 SLP089 BCFG ALQDS T10061011